createdAt,value
2019-06-20T00:00:46.578Z,22.40
2019-06-20T00:03:17.422Z,22.40
2019-06-20T00:05:47.936Z,22.40
2019-06-20T00:08:18.439Z,22.30
2019-06-20T00:10:49.087Z,22.40
2019-06-20T00:13:19.539Z,22.40
2019-06-20T00:15:50.245Z,22.40
2019-06-20T00:18:20.714Z,22.30
2019-06-20T00:20:51.161Z,22.30
2019-06-20T00:23:21.848Z,22.30
2019-06-20T00:25:52.424Z,22.30
2019-06-20T00:28:22.877Z,22.40
2019-06-20T00:30:53.493Z,22.30
2019-06-20T00:33:24.010Z,22.30
2019-06-20T00:35:54.650Z,22.30
2019-06-20T00:38:25.109Z,22.30
2019-06-20T00:40:55.577Z,22.30
2019-06-20T00:43:26.271Z,22.30
2019-06-20T00:45:56.749Z,22.30
2019-06-20T00:48:27.549Z,22.30
2019-06-20T00:50:57.937Z,22.20
2019-06-20T00:53:28.393Z,22.20
2019-06-20T00:55:58.821Z,22.10
2019-06-20T00:58:29.407Z,22.10
2019-06-20T01:00:59.850Z,22.10
2019-06-20T01:03:30.233Z,22.10
2019-06-20T01:06:00.668Z,22.10
2019-06-20T01:08:31.268Z,22.10
2019-06-20T01:11:01.759Z,22.10
2019-06-20T01:13:34.519Z,22.10
2019-06-20T01:16:06.578Z,22.10
2019-06-20T01:18:36.982Z,22.10
2019-06-20T01:21:08.963Z,22.00
2019-06-20T01:23:39.411Z,22.00
2019-06-20T01:26:10.146Z,22.00
2019-06-20T01:28:40.637Z,22.00
2019-06-20T01:31:11.118Z,22.00
2019-06-20T01:33:41.532Z,21.90
2019-06-20T01:36:12.158Z,21.90
2019-06-20T01:38:42.586Z,21.70
2019-06-20T01:41:13.392Z,21.70
2019-06-20T01:43:50.471Z,21.70
2019-06-20T01:46:16.788Z,21.70
2019-06-20T01:48:47.237Z,21.70
2019-06-20T01:51:17.712Z,21.70
2019-06-20T01:53:48.386Z,21.60
2019-06-20T01:56:18.812Z,21.60
2019-06-20T01:58:49.224Z,21.60
2019-06-20T02:01:19.683Z,21.50
2019-06-20T02:03:50.166Z,21.50
2019-06-20T02:06:20.619Z,21.50
2019-06-20T02:08:51.076Z,21.40
2019-06-20T02:11:21.679Z,21.40
2019-06-20T02:14:06.422Z,21.40
2019-06-20T02:16:24.222Z,21.40
2019-06-20T02:18:54.678Z,21.30
2019-06-20T02:21:25.529Z,21.40
2019-06-20T02:23:55.988Z,21.40
2019-06-20T02:26:26.553Z,21.40
2019-06-20T02:28:56.957Z,21.40
2019-06-20T02:31:28.470Z,21.40
2019-06-20T02:33:58.866Z,21.40
2019-06-20T02:36:29.491Z,21.40
2019-06-20T02:38:59.920Z,21.40
2019-06-20T02:41:30.364Z,21.40
2019-06-20T02:44:01.163Z,21.40
2019-06-20T02:46:31.865Z,21.40
2019-06-20T02:49:02.389Z,21.40
2019-06-20T02:51:33.091Z,21.40
2019-06-20T02:54:03.695Z,21.40
2019-06-20T02:56:35.171Z,21.40
2019-06-20T02:59:05.618Z,21.40
2019-06-20T03:01:36.156Z,21.50
2019-06-20T03:04:06.613Z,21.50
2019-06-20T03:06:37.054Z,21.60
2019-06-20T03:09:08.236Z,21.50
2019-06-20T03:11:38.652Z,21.50
2019-06-20T03:14:09.150Z,21.50
2019-06-20T03:16:39.554Z,21.50
2019-06-20T03:19:09.938Z,21.50
2019-06-20T03:21:40.470Z,21.50
2019-06-20T03:24:11.051Z,21.50
2019-06-20T03:26:41.457Z,21.50
2019-06-20T03:29:11.826Z,21.50
2019-06-20T03:31:42.685Z,21.50
2019-06-20T03:34:13.217Z,21.60
2019-06-20T03:36:43.906Z,21.60
2019-06-20T03:39:14.299Z,21.70
2019-06-20T03:41:44.797Z,21.80
2019-06-20T03:44:15.458Z,21.90
2019-06-20T03:46:45.848Z,22.00
2019-06-20T03:49:16.329Z,21.90
2019-06-20T03:51:46.812Z,22.00
2019-06-20T03:54:17.261Z,22.00
2019-06-20T03:56:47.654Z,22.00
2019-06-20T03:59:18.069Z,22.00
2019-06-20T04:01:49.309Z,22.10
2019-06-20T04:04:19.983Z,22.20
2019-06-20T04:06:50.435Z,22.10
2019-06-20T04:09:20.867Z,22.10
2019-06-20T04:11:51.355Z,22.20
2019-06-20T04:14:21.771Z,22.30
2019-06-20T04:16:52.181Z,22.40
2019-06-20T04:19:22.623Z,22.40
2019-06-20T04:21:53.378Z,22.50
2019-06-20T04:24:23.778Z,22.50
2019-06-20T04:26:54.182Z,22.50
2019-06-20T04:29:24.840Z,22.60
2019-06-20T04:31:55.272Z,22.60
2019-06-20T04:34:25.742Z,22.60
2019-06-20T04:36:56.541Z,22.80
2019-06-20T04:39:27.015Z,22.60
2019-06-20T04:41:57.448Z,22.60
2019-06-20T04:44:27.984Z,22.70
2019-06-20T04:47:04.227Z,22.80
2019-06-20T04:49:34.671Z,23.00
2019-06-20T04:52:05.074Z,23.10
2019-06-20T04:54:35.706Z,23.30
2019-06-20T04:57:06.108Z,23.50
2019-06-20T04:59:36.864Z,23.60
2019-06-20T05:02:07.298Z,23.80
2019-06-20T05:04:37.697Z,23.80
2019-06-20T05:07:16.374Z,24.00
2019-06-20T05:09:46.918Z,24.10
2019-06-20T05:12:17.422Z,24.20
2019-06-20T05:14:48.023Z,24.20
2019-06-20T05:17:18.421Z,24.30
2019-06-20T05:19:49.113Z,24.30
2019-06-20T05:22:19.505Z,24.40
2019-06-20T05:24:50.027Z,24.30
2019-06-20T05:27:21.873Z,24.40
2019-06-20T05:29:53.357Z,24.50
2019-06-20T05:32:23.822Z,24.50
2019-06-20T05:34:55.330Z,24.50
2019-06-20T05:37:25.929Z,24.50
2019-06-20T05:39:56.383Z,24.60
2019-06-20T05:42:26.884Z,24.60
2019-06-20T05:44:57.254Z,24.70
2019-06-20T05:47:27.657Z,24.60
2019-06-20T05:49:58.089Z,24.60
2019-06-20T05:52:28.643Z,24.40
2019-06-20T05:54:59.094Z,24.50
2019-06-20T05:57:29.515Z,24.50
2019-06-20T06:00:00.948Z,24.50
2019-06-20T06:02:31.456Z,24.50
2019-06-20T06:05:01.873Z,24.40
2019-06-20T06:07:32.474Z,24.50
2019-06-20T06:10:04.443Z,24.30
2019-06-20T06:12:36.354Z,24.30
2019-06-20T06:15:07.401Z,24.30
2019-06-20T06:17:38.635Z,24.30
2019-06-20T06:20:10.922Z,24.20
2019-06-20T06:22:44.566Z,24.20
2019-06-20T06:25:13.519Z,24.20
2019-06-20T06:27:44.012Z,24.30
2019-06-20T06:30:15.914Z,24.30
2019-06-20T06:32:46.469Z,24.30
2019-06-20T06:35:17.189Z,24.40
2019-06-20T06:37:47.799Z,24.60
2019-06-20T06:40:18.742Z,24.60
2019-06-20T06:42:49.158Z,24.60
2019-06-20T06:45:21.245Z,24.80
2019-06-20T06:47:51.755Z,24.70
2019-06-20T06:50:22.465Z,24.80
2019-06-20T06:52:52.961Z,24.80
2019-06-20T06:55:27.224Z,24.80
2019-06-20T06:57:55.651Z,24.90
2019-06-20T07:00:26.417Z,24.90
2019-06-20T07:02:56.865Z,24.80
2019-06-20T07:05:27.631Z,24.80
2019-06-20T07:07:58.121Z,24.90
2019-06-20T07:10:28.611Z,25.10
2019-06-20T07:12:59.634Z,25.10
2019-06-20T07:15:30.534Z,25.10
2019-06-20T07:18:01.938Z,25.10
2019-06-20T07:20:32.416Z,25.30
2019-06-20T07:23:03.003Z,25.10
2019-06-20T07:25:33.599Z,25.10
2019-06-20T07:28:04.510Z,25.20
2019-06-20T07:30:36.094Z,25.20
2019-06-20T07:33:06.755Z,25.20
2019-06-20T07:35:41.423Z,25.10
2019-06-20T07:38:09.238Z,25.20
2019-06-20T07:40:39.724Z,25.10
2019-06-20T07:43:10.295Z,25.20
2019-06-20T07:45:40.734Z,25.30
2019-06-20T07:48:11.212Z,25.40
2019-06-20T07:50:42.183Z,25.70
2019-06-20T07:53:12.638Z,25.80
2019-06-20T07:55:43.438Z,25.90
2019-06-20T07:58:13.886Z,26.00
2019-06-20T08:00:44.819Z,26.00
2019-06-20T08:03:15.662Z,26.30
2019-06-20T08:05:46.099Z,26.30
2019-06-20T08:08:16.535Z,26.20
2019-06-20T08:10:47.018Z,26.20
2019-06-20T08:13:17.694Z,26.20
2019-06-20T08:15:48.277Z,26.40
2019-06-20T08:18:18.823Z,26.60
2019-06-20T08:20:49.379Z,26.80
2019-06-20T08:23:19.867Z,26.70
2019-06-20T08:25:50.489Z,26.80
2019-06-20T08:28:21.071Z,26.90
2019-06-20T08:30:51.738Z,27.00
2019-06-20T08:33:22.186Z,27.10
2019-06-20T08:35:52.787Z,27.20
2019-06-20T08:38:23.531Z,27.10
2019-06-20T08:40:56.505Z,27.00
2019-06-20T08:43:27.627Z,27.10
2019-06-20T08:45:59.502Z,27.20
2019-06-20T08:48:30.284Z,27.40
2019-06-20T08:51:02.175Z,27.50
2019-06-20T08:53:35.850Z,27.60
2019-06-20T08:56:06.688Z,27.60
2019-06-20T08:58:37.262Z,27.60
2019-06-20T09:03:39.409Z,27.70
2019-06-20T09:06:09.868Z,27.90
2019-06-20T09:08:40.729Z,28.00
2019-06-20T09:11:13.194Z,28.10
2019-06-20T09:13:43.890Z,28.10
2019-06-20T09:16:24.296Z,28.00
2019-06-20T09:18:46.601Z,28.00
2019-06-20T09:21:17.332Z,28.00
2019-06-20T09:23:47.717Z,28.00
2019-06-20T09:26:18.174Z,27.90
2019-06-20T09:28:48.932Z,27.80
2019-06-20T09:31:19.537Z,27.80
2019-06-20T09:33:52.117Z,27.80
2019-06-20T09:36:22.927Z,27.90
2019-06-20T09:38:53.988Z,27.90
2019-06-20T09:41:25.813Z,28.10
2019-06-20T09:43:58.493Z,28.10
2019-06-20T09:46:29.054Z,28.10
2019-06-20T09:48:59.873Z,28.10
2019-06-20T09:51:31.527Z,27.90
2019-06-20T09:54:02.012Z,27.80
2019-06-20T09:56:32.764Z,27.90
2019-06-20T09:59:03.401Z,27.70
2019-06-20T10:01:34.155Z,27.70
2019-06-20T10:04:05.106Z,27.80
2019-06-20T10:06:35.629Z,27.60
2019-06-20T10:09:08.056Z,27.60
2019-06-20T10:11:38.661Z,27.40
2019-06-20T10:14:10.282Z,27.50
2019-06-20T10:16:45.864Z,27.40
2019-06-20T10:19:13.514Z,27.30
2019-06-20T10:21:46.237Z,27.30
2019-06-20T10:24:16.789Z,27.20
2019-06-20T10:26:48.296Z,27.10
2019-06-20T10:29:19.882Z,27.00
2019-06-20T10:31:50.854Z,27.00
2019-06-20T10:34:21.552Z,26.90
2019-06-20T10:36:52.392Z,26.80
2019-06-20T10:39:23.038Z,26.70
2019-06-20T10:41:53.678Z,26.80
2019-06-20T10:44:24.122Z,26.60
2019-06-20T10:46:54.726Z,26.80
2019-06-20T10:49:25.357Z,26.70
2019-06-20T10:51:55.834Z,26.50
2019-06-20T10:54:26.514Z,26.40
2019-06-20T10:56:57.402Z,26.50
2019-06-20T10:59:27.832Z,26.60
2019-06-20T11:01:58.246Z,26.70
2019-06-20T11:04:28.888Z,26.80
2019-06-20T11:06:59.285Z,27.00
2019-06-20T11:09:29.945Z,27.10
2019-06-20T11:12:00.374Z,27.30
2019-06-20T11:14:30.828Z,27.50
2019-06-20T11:17:01.455Z,27.60
2019-06-20T11:19:32.089Z,27.30
2019-06-20T11:22:02.779Z,27.20
2019-06-20T11:24:33.410Z,27.40
2019-06-20T11:27:04.137Z,27.50
2019-06-20T11:29:35.043Z,27.70
2019-06-20T11:32:05.515Z,27.80
2019-06-20T11:34:37.729Z,28.00
2019-06-20T11:37:08.465Z,28.30
2019-06-20T11:39:38.988Z,28.60
2019-06-20T11:42:09.537Z,28.90
2019-06-20T11:44:40.866Z,29.20
2019-06-20T11:47:11.582Z,29.50
2019-06-20T11:49:42.521Z,29.70
2019-06-20T11:52:12.990Z,30.00
2019-06-20T11:54:43.628Z,30.40
2019-06-20T11:57:14.276Z,30.70
2019-06-20T11:59:44.684Z,31.20
2019-06-20T12:02:15.110Z,31.20
2019-06-20T12:04:46.904Z,31.00
2019-06-20T12:07:17.784Z,31.20
2019-06-20T12:09:49.181Z,31.50
2019-06-20T12:12:20.238Z,31.80
2019-06-20T12:14:50.778Z,32.10
2019-06-20T12:17:21.368Z,32.70
2019-06-20T12:19:52.228Z,33.20
2019-06-20T12:22:23.349Z,33.70
2019-06-20T12:24:54.133Z,33.40
2019-06-20T12:27:24.564Z,34.30
2019-06-20T12:29:55.021Z,35.20
2019-06-20T12:32:25.823Z,36.30
2019-06-20T12:34:57.293Z,37.90
2019-06-20T12:37:27.726Z,38.60
2019-06-20T12:39:58.423Z,39.30
2019-06-20T12:42:28.910Z,40.10
2019-06-20T12:44:59.335Z,41.20
2019-06-20T12:47:30.038Z,42.90
2019-06-20T12:50:00.587Z,44.00
2019-06-20T12:52:31.377Z,44.40
2019-06-20T12:55:01.796Z,43.50
2019-06-20T12:57:32.275Z,43.90
2019-06-20T13:00:03.232Z,43.60
2019-06-20T13:02:34.146Z,43.50
2019-06-20T13:05:06.971Z,42.50
2019-06-20T13:07:38.602Z,41.90
2019-06-20T13:10:09.807Z,39.30
2019-06-20T13:12:42.254Z,38.80
2019-06-20T13:15:12.895Z,38.90
2019-06-20T13:17:44.860Z,38.10
2019-06-20T13:20:16.061Z,38.10
2019-06-20T13:22:46.642Z,37.60
2019-06-20T13:25:17.606Z,36.60
2019-06-20T13:27:48.367Z,37.10
2019-06-20T13:30:21.270Z,39.10
2019-06-20T13:32:52.370Z,40.90
2019-06-20T13:35:23.190Z,43.60
2019-06-20T13:37:54.621Z,43.90
2019-06-20T13:40:25.543Z,45.50
2019-06-20T13:42:56.002Z,47.30
2019-06-20T13:45:27.303Z,47.60
2019-06-20T13:47:59.074Z,48.50
2019-06-20T13:50:29.498Z,47.20
2019-06-20T13:53:00.212Z,47.40
2019-06-20T13:55:30.826Z,48.10
2019-06-20T13:58:01.274Z,49.30
2019-06-20T14:00:33.468Z,50.30
2019-06-20T14:03:04.068Z,50.60
2019-06-20T14:05:34.733Z,51.40
2019-06-20T14:08:05.644Z,52.30
2019-06-20T14:10:36.086Z,51.80
2019-06-20T14:13:18.786Z,50.40
2019-06-20T14:15:38.907Z,49.70
2019-06-20T14:18:09.618Z,49.70
2019-06-20T14:20:40.459Z,48.60
2019-06-20T14:23:10.900Z,49.10
2019-06-20T14:25:42.424Z,47.90
2019-06-20T14:28:13.823Z,46.20
2019-06-20T14:30:45.004Z,46.00
2019-06-20T14:33:16.549Z,45.40
2019-06-20T14:35:47.857Z,44.80
2019-06-20T14:38:19.712Z,43.80
2019-06-20T14:40:50.607Z,43.80
2019-06-20T14:43:21.043Z,43.90
2019-06-20T14:45:51.491Z,44.10
2019-06-20T14:48:22.756Z,45.40
2019-06-20T14:50:53.546Z,45.80
2019-06-20T14:53:25.093Z,46.40
2019-06-20T14:55:55.672Z,47.40
2019-06-20T14:58:26.124Z,48.50
2019-06-20T15:00:57.916Z,49.60
2019-06-20T15:03:28.375Z,48.90
2019-06-20T15:05:59.256Z,48.30
2019-06-20T15:08:29.678Z,46.90
2019-06-20T15:11:00.192Z,45.60
2019-06-20T15:13:30.641Z,44.00
2019-06-20T15:16:01.236Z,42.40
2019-06-20T15:18:31.729Z,42.20
2019-06-20T15:21:02.380Z,42.50
2019-06-20T15:23:32.936Z,41.90
2019-06-20T15:26:03.406Z,39.90
2019-06-20T15:28:34.124Z,38.90
2019-06-20T15:31:05.070Z,38.00
2019-06-20T15:33:35.502Z,37.60
2019-06-20T15:36:06.391Z,36.90
2019-06-20T15:38:38.016Z,36.50
2019-06-20T15:41:08.436Z,36.40
2019-06-20T15:43:40.293Z,36.00
2019-06-20T15:46:10.850Z,35.40
2019-06-20T15:48:41.410Z,35.30
2019-06-20T15:51:12.073Z,35.20
2019-06-20T15:53:49.878Z,34.90
2019-06-20T15:56:20.312Z,34.90
2019-06-20T15:58:50.891Z,35.00
2019-06-20T16:01:21.490Z,35.50
2019-06-20T16:03:52.008Z,36.20
2019-06-20T16:06:22.642Z,36.80
2019-06-20T16:08:53.326Z,36.90
2019-06-20T16:11:24.030Z,37.50
2019-06-20T16:13:54.681Z,37.70
2019-06-20T16:16:25.476Z,37.80
2019-06-20T16:18:55.952Z,38.10
2019-06-20T16:21:26.482Z,38.50
2019-06-20T16:23:56.966Z,38.50
2019-06-20T16:26:27.552Z,38.40
2019-06-20T16:28:58.292Z,38.20
2019-06-20T16:31:28.876Z,37.50
2019-06-20T16:33:59.408Z,37.10
2019-06-20T16:36:29.862Z,37.10
2019-06-20T16:39:01.210Z,36.80
2019-06-20T16:41:33.333Z,36.40
2019-06-20T16:44:04.238Z,36.00
2019-06-20T16:46:34.636Z,35.40
2019-06-20T16:49:05.372Z,35.00
2019-06-20T16:51:35.910Z,35.00
2019-06-20T16:54:06.358Z,34.70
2019-06-20T16:56:37.019Z,34.30
2019-06-20T16:59:07.540Z,34.30
2019-06-20T17:01:39.301Z,34.00
2019-06-20T17:04:09.940Z,33.90
2019-06-20T17:06:40.815Z,34.00
2019-06-20T17:09:11.270Z,33.70
2019-06-20T17:11:41.953Z,33.50
2019-06-20T17:14:12.603Z,33.40
2019-06-20T17:16:43.353Z,33.20
2019-06-20T17:19:14.097Z,32.90
2019-06-20T17:21:44.919Z,32.80
2019-06-20T17:24:15.346Z,32.40
2019-06-20T17:26:46.097Z,32.10
2019-06-20T17:29:16.726Z,31.80
2019-06-20T17:31:47.654Z,31.70
2019-06-20T17:34:18.099Z,31.60
2019-06-20T17:37:34.857Z,31.70
2019-06-20T17:40:10.808Z,31.50
2019-06-20T17:42:41.317Z,31.50
2019-06-20T17:45:14.118Z,31.40
2019-06-20T17:47:44.604Z,31.30
2019-06-20T17:50:16.981Z,31.30
2019-06-20T17:52:47.504Z,31.30
2019-06-20T17:55:18.947Z,31.20
2019-06-20T17:57:49.508Z,31.00
2019-06-20T18:00:21.682Z,30.90
2019-06-20T18:02:52.174Z,30.80
2019-06-20T18:05:24.210Z,30.80
2019-06-20T18:07:55.949Z,30.70
2019-06-20T18:10:28.095Z,30.70
2019-06-20T18:12:58.670Z,30.50
2019-06-20T18:15:29.343Z,30.20
2019-06-20T18:17:59.966Z,30.30
2019-06-20T18:20:30.616Z,30.10
2019-06-20T18:23:01.150Z,30.10
2019-06-20T18:25:33.160Z,30.00
2019-06-20T18:28:03.894Z,29.80
2019-06-20T18:30:41.164Z,29.90
2019-06-20T18:33:11.752Z,29.90
2019-06-20T18:35:42.230Z,29.90
2019-06-20T18:38:13.096Z,29.80
2019-06-20T18:40:43.656Z,29.70
2019-06-20T18:43:14.156Z,29.70
2019-06-20T18:45:44.650Z,29.70
2019-06-20T18:48:15.047Z,29.70
2019-06-20T18:50:45.900Z,29.60
2019-06-20T18:53:17.558Z,29.60
2019-06-20T18:55:48.358Z,29.40
2019-06-20T18:58:18.837Z,29.30
2019-06-20T19:00:49.667Z,29.20
2019-06-20T19:03:21.410Z,29.20
2019-06-20T19:05:52.661Z,29.20
2019-06-20T19:08:24.427Z,29.20
2019-06-20T19:10:55.213Z,29.00
2019-06-20T19:13:25.716Z,28.60
2019-06-20T19:15:56.675Z,28.50
2019-06-20T19:18:27.283Z,28.30
2019-06-20T19:20:57.979Z,28.30
2019-06-20T19:23:28.537Z,28.30
2019-06-20T19:25:59.303Z,28.30
2019-06-20T19:28:29.889Z,28.20
2019-06-20T19:31:00.783Z,28.20
2019-06-20T19:33:31.416Z,28.30
2019-06-20T19:36:02.093Z,28.20
2019-06-20T19:38:32.599Z,28.20
2019-06-20T19:41:03.204Z,28.00
2019-06-20T19:43:33.780Z,28.00
2019-06-20T19:46:04.379Z,27.80
2019-06-20T19:48:36.848Z,27.60
2019-06-20T19:51:07.606Z,27.60
2019-06-20T19:53:38.282Z,27.60
2019-06-20T19:56:09.749Z,27.50
2019-06-20T19:58:40.250Z,27.40
2019-06-20T20:01:10.868Z,27.30
2019-06-20T20:03:41.412Z,27.30
2019-06-20T20:06:11.920Z,27.20
2019-06-20T20:08:42.578Z,27.20
2019-06-20T20:11:24.634Z,27.00
2019-06-20T20:13:55.444Z,26.90
2019-06-20T20:16:26.152Z,26.80
2019-06-20T20:18:56.732Z,26.70
2019-06-20T20:21:27.157Z,26.70
2019-06-20T20:23:57.544Z,26.60
2019-06-20T20:26:28.452Z,26.50
2019-06-20T20:28:58.878Z,26.40
2019-06-20T20:31:29.606Z,26.40
2019-06-20T20:34:00.342Z,26.40
2019-06-20T20:36:30.757Z,26.30
2019-06-20T20:39:01.481Z,26.30
2019-06-20T20:41:33.493Z,26.20
2019-06-20T20:44:03.945Z,26.00
2019-06-20T20:46:34.663Z,25.80
2019-06-20T20:49:05.295Z,25.50
2019-06-20T20:51:36.143Z,25.40
2019-06-20T20:54:07.787Z,25.30
2019-06-20T20:56:38.467Z,25.20
2019-06-20T20:59:09.003Z,25.10
2019-06-20T21:01:39.405Z,25.00
2019-06-20T21:04:10.207Z,24.90
2019-06-20T21:06:40.704Z,25.00
2019-06-20T21:09:11.178Z,25.00
2019-06-20T21:11:41.672Z,24.80
2019-06-20T21:14:12.138Z,24.70
2019-06-20T21:16:42.634Z,24.70
2019-06-20T21:19:13.129Z,24.70
2019-06-20T21:21:43.522Z,24.80
2019-06-20T21:24:14.068Z,24.60
2019-06-20T21:26:49.937Z,24.50
2019-06-20T21:29:17.967Z,24.40
2019-06-20T21:31:49.494Z,24.30
2019-06-20T21:34:21.334Z,24.20
2019-06-20T21:36:52.003Z,24.10
2019-06-20T21:39:22.567Z,24.10
2019-06-20T21:41:53.339Z,24.20
2019-06-20T21:44:23.877Z,24.30
2019-06-20T21:46:54.460Z,24.40
2019-06-20T21:49:25.378Z,24.30
2019-06-20T21:51:55.923Z,24.40
2019-06-20T21:54:26.353Z,24.50
2019-06-20T21:56:56.991Z,24.40
2019-06-20T21:59:27.491Z,24.40
2019-06-20T22:01:58.113Z,24.40
2019-06-20T22:04:28.717Z,24.30
2019-06-20T22:06:59.589Z,24.10
2019-06-20T22:09:30.194Z,24.10
2019-06-20T22:12:00.799Z,24.00
2019-06-20T22:14:32.511Z,24.10
2019-06-20T22:17:03.356Z,24.00
2019-06-20T22:19:33.801Z,24.00
2019-06-20T22:22:04.674Z,23.90
2019-06-20T22:24:35.295Z,23.90
2019-06-20T22:27:06.177Z,23.90
2019-06-20T22:29:36.854Z,23.80
2019-06-20T22:32:07.534Z,23.90
2019-06-20T22:34:37.986Z,23.90
2019-06-20T22:37:08.763Z,23.80
2019-06-20T22:39:39.488Z,23.60
2019-06-20T22:42:11.864Z,23.60
2019-06-20T22:44:42.400Z,23.50
2019-06-20T22:47:12.834Z,23.40
2019-06-20T22:49:43.553Z,23.40
2019-06-20T22:52:14.123Z,23.30
2019-06-20T22:54:44.750Z,23.20
2019-06-20T22:57:15.349Z,23.20
2019-06-20T22:59:46.727Z,23.10
2019-06-20T23:02:17.390Z,22.90
2019-06-20T23:04:48.092Z,22.90
2019-06-20T23:07:18.488Z,23.00
2019-06-20T23:09:49.177Z,23.10
2019-06-20T23:12:19.868Z,22.80
2019-06-20T23:14:50.439Z,22.70
2019-06-20T23:17:21.021Z,22.60
2019-06-20T23:19:51.821Z,22.60
2019-06-20T23:22:22.271Z,22.50
2019-06-20T23:24:52.784Z,22.40
2019-06-20T23:27:23.473Z,22.40
2019-06-20T23:29:53.886Z,22.30
2019-06-20T23:32:24.701Z,22.30
2019-06-20T23:34:55.108Z,22.40
2019-06-20T23:37:25.564Z,22.40
2019-06-20T23:39:55.962Z,22.40
2019-06-20T23:42:26.663Z,22.40
2019-06-20T23:44:57.235Z,22.30
2019-06-20T23:47:28.216Z,22.30
2019-06-20T23:49:58.907Z,22.20
2019-06-20T23:52:32.077Z,22.20
2019-06-20T23:55:02.566Z,22.10
2019-06-20T23:57:33.072Z,22.10
